Flight Track Log - Related Links

Times and Time Zones

All times are in EDT time to prevent confusion due to time zone crossing. See the LBQ792 flight status page for this flight to view local times or setup timezone preferences in your user account.


Time Position Orientation Groundspeed Altitude Reporting Facility
EDT Latitude Longitude Course Direction KTS MPH feet Rate Location/Type
Fri 08:33:21 PM 40.4228 -75.9536 337° Northwest 168 193 3,100  Level New York Center
Fri 08:34:21 PM 40.4675 -75.9789 337° Northwest 195 224 12,500 1,279 Climbing New York Center
Fri 08:35:23 PM 40.5144 -76.0042 338° Northwest 190 219 5,700 -2,750 Descending New York Center
Fri 08:36:21 PM 40.5569 -76.0322 333° Northwest 190 219 7,000 1,322 Climbing New York Center
Fri 08:37:21 PM 40.6078 -76.0578 339° North 190 219 8,300 1,450 Climbing New York Center
Fri 08:38:21 PM 40.6608 -76.0839 340° North 190 219 9,900 1,328 Climbing New York Center
Fri 08:39:23 PM 40.7117 -76.1125 337° Northwest 190 219 11,000 1,131 Climbing New York Center
Fri 08:40:23 PM 40.7606 -76.1383 338° Northwest 190 219 12,200 814 Climbing New York Center
Fri 08:41:21 PM 40.8133 -76.1669 338° Northwest 202 232 12,600 202 Climbing New York Center
Fri 08:42:22 PM 40.8744 -76.1992 338° Northwest 226 260 12,600  Level New York Center
Fri 08:43:23 PM 40.9456 -76.2381 338° Northwest 242 278 12,600  Level New York Center
Fri 08:44:23 PM 41.0108 -76.2706 339° North 247 284 12,600  Level New York Center
Fri 08:45:20 PM 41.0756 -76.3089 336° Northwest 253 291 12,600 -51 Level New York Center
Fri 08:46:21 PM 41.1347 -76.3386 339° North 247 284 12,500 -50 Descending New York Center
Fri 08:47:21 PM 41.1994 -76.3769 336° Northwest 247 284 12,500  Level New York Center
Fri 08:48:21 PM 41.2706 -76.4133 339° North 247 284 12,500  Level New York Center
Fri 08:49:23 PM 41.3375 -76.4519 337° Northwest 247 284 12,500  Level New York Center
Fri 08:50:22 PM 41.4025 -76.4881 337° Northwest 247 284 12,500  Level New York Center
Fri 08:51:23 PM 41.4592 -76.5206 337° Northwest 247 284 12,500  Level New York Center
Fri 08:52:21 PM 41.5242 -76.5592 336° Northwest 247 284 12,500  Level New York Center
Fri 08:53:21 PM 41.5950 -76.5986 337° Northwest 247 284 12,500 -50 Level New York Center
Fri 08:54:21 PM 41.6600 -76.6350 337° Northwest 247 284 12,400 -793 Descending New York Center
Fri 08:55:22 PM 41.7267 -76.6742 336° Northwest 252 290 10,900 -1,600 Descending New York Center
Fri 08:56:21 PM 41.7994 -76.7194 335° Northwest 269 310 9,200 -1,636 Descending New York Center
Fri 08:57:23 PM 41.8636 -76.7697 330° Northwest 269 310 7,600 -1,623 Descending New York Center
Fri 08:58:23 PM 41.9258 -76.8117 333° Northwest 264 304 5,900 -1,576 Descending New York Center
Fri 08:59:21 PM 41.9903 -76.8567 333° Northwest 253 291 4,500 -814 Descending New York Center
Fri 09:00:21 PM 42.0467 -76.8953 333° Northwest 253 291 4,300 -800 Descending New York Center
Fri 09:01:21 PM 42.1117 -76.9267 340° North 253 291 2,900 4,066 Descending New York Center
Fri 09:02:22 PM 42.1764 -76.9633 337° Northwest 234 269 12,500 4,721 Climbing New York Center
Fri 09:03:23 PM 42.2369 -76.9972 337° Northwest 234 269 12,500  Level New York Center
Fri 09:04:22 PM 42.2978 -77.0308 338° Northwest 234 269 12,500  Level New York Center
Fri 09:05:23 PM 42.3583 -77.0647 338° Northwest 234 269 12,500  Level New York Center
Fri 09:06:23 PM 42.3947 -77.0850 338° Northwest 234 269 12,500  Level New York Center
Fri 09:07:21 PM 42.3947 -77.0850 360° North 234 269 12,500  Level New York Center
Fri 09:10:00 PM 42.2963 -77.0036 149° Southeast  Level FlightAware Approximate
Fri 09:17:00 PM 42.1599 -76.8917 148° Southeast  Level Estimated
Fri 09:18:00 PM 42.1599 -76.8917 148° Southeast  Level Estimated

Login

Don't have an account? Register now (free) for customized features, flight alerts, and more!